createdAt,value
2023-01-21T00:01:00.956Z,37.93
2023-01-21T00:03:28.003Z,50.60
2023-01-21T00:05:54.916Z,38.37
2023-01-21T00:08:22.117Z,34.10
2023-01-21T00:10:49.026Z,43.50
2023-01-21T00:13:15.962Z,37.40
2023-01-21T00:15:43.564Z,39.47
2023-01-21T00:18:10.550Z,36.97
2023-01-21T00:20:37.925Z,36.37
2023-01-21T00:23:06.184Z,43.30
2023-01-21T00:25:33.314Z,39.53
2023-01-21T00:28:00.359Z,49.33
2023-01-21T00:30:27.332Z,41.67
2023-01-21T00:32:54.260Z,38.40
2023-01-21T00:35:21.304Z,44.50
2023-01-21T00:37:50.658Z,40.37
2023-01-21T00:40:18.058Z,41.90
2023-01-21T00:42:45.315Z,46.60
2023-01-21T00:45:12.285Z,40.67
2023-01-21T00:47:39.171Z,42.77
2023-01-21T00:50:06.888Z,50.20
2023-01-21T00:52:34.072Z,42.27
2023-01-21T00:55:01.182Z,39.90
2023-01-21T00:57:28.065Z,37.97
2023-01-21T00:59:54.983Z,49.10
2023-01-21T01:02:22.179Z,41.90
2023-01-21T01:04:49.158Z,43.87
2023-01-21T01:07:16.384Z,48.73
2023-01-21T01:09:43.479Z,42.57
2023-01-21T01:12:10.314Z,42.63
2023-01-21T01:14:37.213Z,37.70
2023-01-21T01:17:05.018Z,42.33
2023-01-21T01:19:31.991Z,43.30
2023-01-21T01:21:59.341Z,50.43
2023-01-21T01:24:26.205Z,50.37
2023-01-21T01:26:53.034Z,48.70
2023-01-21T01:29:19.903Z,50.13
2023-01-21T01:31:47.072Z,53.07
2023-01-21T01:34:14.323Z,55.73
2023-01-21T01:36:41.278Z,45.43
2023-01-21T01:39:08.392Z,50.47
2023-01-21T01:41:35.511Z,53.47
2023-01-21T01:44:05.514Z,47.90
2023-01-21T01:46:35.588Z,46.43
2023-01-21T01:49:22.320Z,50.17
2023-01-21T01:51:58.906Z,48.03
2023-01-21T01:54:36.648Z,41.90
2023-01-21T01:57:06.755Z,46.83
2023-01-21T01:59:34.556Z,44.73
2023-01-21T02:02:06.956Z,45.60
2023-01-21T02:04:44.296Z,44.73
2023-01-21T02:07:11.723Z,40.63
2023-01-21T02:09:39.371Z,41.77
2023-01-21T02:12:07.217Z,53.07
2023-01-21T02:14:42.665Z,49.87
2023-01-21T02:17:22.015Z,48.67
2023-01-21T02:20:04.388Z,56.53
2023-01-21T02:22:40.635Z,44.63
2023-01-21T02:25:10.746Z,45.87
2023-01-21T02:27:52.969Z,48.50
2023-01-21T02:30:20.126Z,47.53
2023-01-21T02:33:31.575Z,53.10
2023-01-21T02:36:10.689Z,50.47
2023-01-21T02:38:56.474Z,42.20
2023-01-21T02:41:35.686Z,42.03
2023-01-21T02:44:33.136Z,46.73
2023-01-21T02:47:05.915Z,42.33
2023-01-21T02:49:51.871Z,56.50
2023-01-21T02:52:21.144Z,50.30
2023-01-21T02:54:49.504Z,54.30
2023-01-21T02:57:22.121Z,43.33
2023-01-21T02:59:54.354Z,50.77
2023-01-21T03:02:30.232Z,45.33
2023-01-21T03:05:10.192Z,48.77
2023-01-21T03:07:57.278Z,43.27
2023-01-21T03:10:40.523Z,48.13
2023-01-21T03:13:14.594Z,50.87
2023-01-21T03:16:12.631Z,50.60
2023-01-21T03:18:46.905Z,47.70
2023-01-21T03:21:19.488Z,44.63
2023-01-21T03:23:50.232Z,42.83
2023-01-21T03:26:22.377Z,48.30
2023-01-21T03:28:53.781Z,47.70
2023-01-21T03:31:33.368Z,56.47
2023-01-21T03:34:03.950Z,48.60
2023-01-21T03:36:37.560Z,44.80
2023-01-21T03:39:13.200Z,50.47
2023-01-21T03:41:40.687Z,48.90
2023-01-21T03:44:07.640Z,48.33
2023-01-21T03:46:49.589Z,48.80
2023-01-21T03:49:28.350Z,47.13
2023-01-21T03:51:59.198Z,44.10
2023-01-21T03:54:26.256Z,50.43
2023-01-21T03:56:53.620Z,60.20
2023-01-21T03:59:20.613Z,43.90
2023-01-21T04:01:47.460Z,43.73
2023-01-21T04:04:14.715Z,49.80
2023-01-21T04:06:41.593Z,50.60
2023-01-21T04:09:10.534Z,45.67
2023-01-21T04:11:37.450Z,48.13
2023-01-21T04:14:04.301Z,50.90
2023-01-21T04:16:31.447Z,57.63
2023-01-21T04:18:58.562Z,45.13
2023-01-21T04:21:25.623Z,59.17
2023-01-21T04:23:52.544Z,45.43
2023-01-21T04:26:19.403Z,46.37
2023-01-21T04:28:46.425Z,39.73
2023-01-21T04:31:13.383Z,45.43
2023-01-21T04:33:40.263Z,48.80
2023-01-21T04:36:07.292Z,51.77
2023-01-21T04:38:34.135Z,40.90
2023-01-21T04:41:00.980Z,41.73
2023-01-21T04:43:27.847Z,48.60
2023-01-21T04:45:57.908Z,37.27
2023-01-21T04:48:25.276Z,48.67
2023-01-21T04:50:52.216Z,52.33
2023-01-21T04:53:19.356Z,47.43
2023-01-21T04:55:46.265Z,54.07
2023-01-21T04:58:13.346Z,48.40
2023-01-21T05:00:40.200Z,46.83
2023-01-21T05:03:07.101Z,45.90
2023-01-21T05:05:33.952Z,47.17
2023-01-21T05:08:00.913Z,54.57
2023-01-21T05:10:28.126Z,44.90
2023-01-21T05:12:55.092Z,43.90
2023-01-21T05:15:22.172Z,42.87
2023-01-21T05:17:49.077Z,46.67
2023-01-21T05:20:17.560Z,49.63
2023-01-21T05:22:49.116Z,49.50
2023-01-21T05:25:16.781Z,44.53
2023-01-21T05:27:43.866Z,43.13
2023-01-21T05:30:11.555Z,49.37
2023-01-21T05:32:38.438Z,43.63
2023-01-21T05:35:05.706Z,47.00
2023-01-21T05:37:35.616Z,42.70
2023-01-21T05:40:07.136Z,50.07
2023-01-21T05:42:33.992Z,46.83
2023-01-21T05:45:01.537Z,46.73
2023-01-21T05:47:28.796Z,51.60
2023-01-21T05:49:55.682Z,39.40
2023-01-21T05:52:22.593Z,47.90
2023-01-21T05:55:01.532Z,45.27
2023-01-21T05:57:30.754Z,43.93
2023-01-21T05:59:58.895Z,42.40
2023-01-21T06:02:26.128Z,57.27
2023-01-21T06:04:53.156Z,45.93
2023-01-21T06:07:20.161Z,37.40
2023-01-21T06:09:47.355Z,48.20
2023-01-21T06:12:14.236Z,45.87
2023-01-21T06:14:41.096Z,50.57
2023-01-21T06:17:08.114Z,42.97
2023-01-21T06:19:35.142Z,49.87
2023-01-21T06:22:02.020Z,46.73
2023-01-21T06:24:29.415Z,49.43
2023-01-21T06:26:56.249Z,53.33
2023-01-21T06:29:23.485Z,54.10
2023-01-21T06:31:50.495Z,50.17
2023-01-21T06:34:17.594Z,55.23
2023-01-21T06:36:44.483Z,40.33
2023-01-21T06:39:11.623Z,46.77
2023-01-21T06:41:38.648Z,59.43
2023-01-21T06:44:06.586Z,47.30
2023-01-21T06:46:33.577Z,49.27
2023-01-21T06:49:01.110Z,47.00
2023-01-21T06:51:28.512Z,48.90
2023-01-21T06:53:55.854Z,45.67
2023-01-21T06:56:22.859Z,51.63
2023-01-21T06:58:49.819Z,47.07
2023-01-21T07:01:16.733Z,45.37
2023-01-21T07:03:44.381Z,52.10
2023-01-21T07:06:11.475Z,61.13
2023-01-21T07:08:38.511Z,52.90
2023-01-21T07:11:05.929Z,56.33
2023-01-21T07:13:32.876Z,51.77
2023-01-21T07:16:04.696Z,60.73
2023-01-21T07:18:33.598Z,48.50
2023-01-21T07:21:01.464Z,56.13
2023-01-21T07:23:30.090Z,62.50
2023-01-21T07:25:58.385Z,50.67
2023-01-21T07:28:25.334Z,57.07
2023-01-21T07:30:52.211Z,63.60
2023-01-21T07:33:19.853Z,62.40
2023-01-21T07:35:46.767Z,61.20
2023-01-21T07:38:13.638Z,69.77
2023-01-21T07:40:40.492Z,74.43
2023-01-21T07:43:07.384Z,59.90
2023-01-21T07:45:34.312Z,69.20
2023-01-21T07:48:01.307Z,66.30
2023-01-21T07:50:28.224Z,67.07
2023-01-21T07:52:55.267Z,72.43
2023-01-21T07:55:22.306Z,62.40
2023-01-21T07:57:49.154Z,69.00
2023-01-21T08:00:16.776Z,69.30
2023-01-21T08:02:44.392Z,72.27
2023-01-21T08:05:11.486Z,62.63
2023-01-21T08:07:38.733Z,70.53
2023-01-21T08:10:05.912Z,69.63
2023-01-21T08:12:33.290Z,60.10
2023-01-21T08:15:00.213Z,65.20
2023-01-21T08:17:27.275Z,57.33
2023-01-21T08:19:54.378Z,60.80
2023-01-21T08:22:21.647Z,60.83
2023-01-21T08:24:48.650Z,74.20
2023-01-21T08:27:16.014Z,72.50
2023-01-21T08:29:42.950Z,62.17
2023-01-21T08:32:10.263Z,67.57
2023-01-21T08:34:37.152Z,78.13
2023-01-21T08:37:04.136Z,71.50
2023-01-21T08:39:31.058Z,69.13
2023-01-21T08:41:57.928Z,70.90
2023-01-21T08:44:25.135Z,63.77
2023-01-21T08:46:51.992Z,74.37
2023-01-21T08:49:18.818Z,67.47
2023-01-21T08:51:45.924Z,74.80
2023-01-21T08:54:13.577Z,77.37
2023-01-21T08:56:40.527Z,78.37
2023-01-21T08:59:07.444Z,69.20
2023-01-21T09:01:36.316Z,77.13
2023-01-21T09:04:03.311Z,75.70
2023-01-21T09:06:30.400Z,71.80
2023-01-21T09:08:58.419Z,75.50
2023-01-21T09:11:26.972Z,78.20
2023-01-21T09:13:53.956Z,74.93
2023-01-21T09:16:22.859Z,86.33
2023-01-21T09:18:50.164Z,68.83
2023-01-21T09:21:17.584Z,70.30
2023-01-21T09:23:44.961Z,69.93
2023-01-21T09:26:23.596Z,87.87
2023-01-21T09:28:59.263Z,68.93
2023-01-21T09:31:28.887Z,78.83
2023-01-21T09:33:59.282Z,75.47
2023-01-21T09:36:28.831Z,70.57
2023-01-21T09:38:55.871Z,71.30
2023-01-21T09:41:41.964Z,65.27
2023-01-21T09:44:18.171Z,67.53
2023-01-21T09:47:08.755Z,71.40
2023-01-21T09:49:39.111Z,68.57
2023-01-21T09:52:18.010Z,68.37
2023-01-21T09:54:45.076Z,64.77
2023-01-21T09:57:26.589Z,67.17
2023-01-21T10:00:23.794Z,70.17
2023-01-21T10:03:09.079Z,70.30
2023-01-21T10:05:45.678Z,70.27
2023-01-21T10:08:15.584Z,74.37
2023-01-21T10:10:48.592Z,63.20
2023-01-21T10:13:27.612Z,64.17
2023-01-21T10:16:29.938Z,66.63
2023-01-21T10:18:58.931Z,67.23
2023-01-21T10:21:44.432Z,64.83
2023-01-21T10:24:18.359Z,64.93
2023-01-21T10:26:48.091Z,69.47
2023-01-21T10:29:19.422Z,68.00
2023-01-21T10:32:03.027Z,62.43
2023-01-21T10:34:31.861Z,70.87
2023-01-21T10:37:20.134Z,66.30
2023-01-21T10:39:56.079Z,61.07
2023-01-21T10:42:32.416Z,69.93
2023-01-21T10:45:26.263Z,66.37
2023-01-21T10:48:08.360Z,59.93
2023-01-21T10:50:48.153Z,66.97
2023-01-21T10:53:49.724Z,65.27
2023-01-21T10:56:54.341Z,60.03
2023-01-21T10:59:25.913Z,59.00
2023-01-21T11:02:21.792Z,63.03
2023-01-21T11:04:49.037Z,61.23
2023-01-21T11:07:20.173Z,69.83
2023-01-21T11:09:48.722Z,74.83
2023-01-21T11:12:21.365Z,57.90
2023-01-21T11:14:55.221Z,59.17
2023-01-21T11:17:35.254Z,58.13
2023-01-21T11:20:15.909Z,61.73
2023-01-21T11:22:45.598Z,67.07
2023-01-21T11:25:38.517Z,57.97
2023-01-21T11:28:05.873Z,62.93
2023-01-21T11:30:55.222Z,60.53
2023-01-21T11:33:28.478Z,66.33
2023-01-21T11:35:56.501Z,68.07
2023-01-21T11:38:33.116Z,52.20
2023-01-21T11:41:22.859Z,58.60
2023-01-21T11:43:55.314Z,60.77
2023-01-21T11:46:41.034Z,59.87
2023-01-21T11:49:08.126Z,63.97
2023-01-21T11:51:42.713Z,55.93
2023-01-21T11:54:17.748Z,55.53
2023-01-21T11:57:03.092Z,50.93
2023-01-21T11:59:34.496Z,47.43
2023-01-21T12:02:16.784Z,52.53
2023-01-21T12:04:50.923Z,56.83
2023-01-21T12:07:25.628Z,50.57
2023-01-21T12:10:08.006Z,54.27
2023-01-21T12:12:37.924Z,49.53
2023-01-21T12:15:27.176Z,50.20
2023-01-21T12:18:05.529Z,47.47
2023-01-21T12:20:41.836Z,44.70
2023-01-21T12:23:51.828Z,43.30
2023-01-21T12:26:38.163Z,47.30
2023-01-21T12:29:11.147Z,48.47
2023-01-21T12:31:45.367Z,41.03
2023-01-21T12:34:37.148Z,41.43
2023-01-21T12:37:25.367Z,40.63
2023-01-21T12:39:55.992Z,51.07
2023-01-21T12:42:32.101Z,43.17
2023-01-21T12:45:11.431Z,40.50
2023-01-21T12:47:48.036Z,38.40
2023-01-21T12:50:41.322Z,35.57
2023-01-21T12:53:26.966Z,38.80
2023-01-21T12:56:12.323Z,37.20
2023-01-21T12:58:50.349Z,32.30
2023-01-21T13:01:42.339Z,35.00
2023-01-21T13:04:14.995Z,36.60
2023-01-21T13:06:54.950Z,37.27
2023-01-21T13:09:37.760Z,28.27
2023-01-21T13:12:20.037Z,34.57
2023-01-21T13:14:52.404Z,34.57
2023-01-21T13:17:22.655Z,31.23
2023-01-21T13:19:49.935Z,31.20
2023-01-21T13:22:40.399Z,31.50
2023-01-21T13:25:20.576Z,35.60
2023-01-21T13:27:53.157Z,34.20
2023-01-21T13:30:33.137Z,30.37
2023-01-21T13:33:33.933Z,31.67
2023-01-21T13:36:22.243Z,38.27
2023-01-21T13:39:01.455Z,32.07
2023-01-21T13:41:47.202Z,39.80
2023-01-21T13:44:33.087Z,27.73
2023-01-21T13:47:12.797Z,29.53
2023-01-21T13:50:17.727Z,33.13
2023-01-21T13:53:26.473Z,29.10
2023-01-21T13:56:48.742Z,34.50
2023-01-21T13:59:25.265Z,28.27
2023-01-21T14:02:13.873Z,37.90
2023-01-21T14:04:49.310Z,34.47
2023-01-21T14:07:21.544Z,31.50
2023-01-21T14:10:00.972Z,30.83
2023-01-21T14:12:37.777Z,32.40
2023-01-21T14:15:27.663Z,28.53
2023-01-21T14:18:13.819Z,32.33
2023-01-21T14:21:07.900Z,38.80
2023-01-21T14:23:58.588Z,33.70
2023-01-21T14:26:34.394Z,31.43
2023-01-21T14:29:25.095Z,31.83
2023-01-21T14:32:15.042Z,35.03
2023-01-21T14:35:17.867Z,36.17
2023-01-21T14:37:56.323Z,34.60
2023-01-21T14:40:33.002Z,38.47
2023-01-21T14:43:00.432Z,35.57
2023-01-21T14:45:54.069Z,33.73
2023-01-21T14:48:41.460Z,34.80
2023-01-21T14:51:12.995Z,38.93
2023-01-21T14:53:51.869Z,39.27
2023-01-21T14:56:27.312Z,38.23
2023-01-21T14:59:25.524Z,35.30
2023-01-21T15:02:17.966Z,36.37
2023-01-21T15:04:54.675Z,38.40
2023-01-21T15:07:25.191Z,38.37
2023-01-21T15:09:55.141Z,36.97
2023-01-21T15:12:31.317Z,37.90
2023-01-21T15:15:00.498Z,34.03
2023-01-21T15:17:48.283Z,46.57
2023-01-21T15:20:33.757Z,37.90
2023-01-21T15:23:22.200Z,35.87
2023-01-21T15:26:15.110Z,38.33
2023-01-21T15:28:45.207Z,41.67
2023-01-21T15:31:23.552Z,37.77
2023-01-21T15:33:50.617Z,45.73
2023-01-21T15:36:32.781Z,37.97
2023-01-21T15:39:13.040Z,41.63
2023-01-21T15:42:01.832Z,48.93
2023-01-21T15:45:23.967Z,43.20
2023-01-21T15:48:09.394Z,39.30
2023-01-21T15:50:51.954Z,34.70
2023-01-21T15:53:46.976Z,40.30
2023-01-21T15:56:33.830Z,43.53
2023-01-21T15:59:36.029Z,38.67
2023-01-21T16:02:21.708Z,36.60
2023-01-21T16:05:14.820Z,39.93
2023-01-21T16:07:41.869Z,40.83
2023-01-21T16:10:38.134Z,41.30
2023-01-21T16:13:33.582Z,38.23
2023-01-21T16:16:25.066Z,33.60
2023-01-21T16:19:04.291Z,37.93
2023-01-21T16:21:34.925Z,41.57
2023-01-21T16:24:07.119Z,35.47
2023-01-21T16:26:34.111Z,40.23
2023-01-21T16:29:01.147Z,36.80
2023-01-21T16:31:28.324Z,36.13
2023-01-21T16:33:55.589Z,38.33
2023-01-21T16:36:22.822Z,31.07
2023-01-21T16:38:49.745Z,32.83
2023-01-21T16:41:24.062Z,30.43
2023-01-21T16:44:00.315Z,36.60
2023-01-21T16:46:33.078Z,40.63
2023-01-21T16:49:01.261Z,34.00
2023-01-21T16:51:36.902Z,38.17
2023-01-21T16:54:22.935Z,31.20
2023-01-21T16:57:00.073Z,36.77
2023-01-21T16:59:38.629Z,34.83
2023-01-21T17:02:15.876Z,34.93
2023-01-21T17:04:42.835Z,39.23
2023-01-21T17:07:43.287Z,32.03
2023-01-21T17:10:26.804Z,33.60
2023-01-21T17:12:57.174Z,40.40
2023-01-21T17:15:38.284Z,36.90
2023-01-21T17:18:24.597Z,31.87
2023-01-21T17:21:12.783Z,31.03
2023-01-21T17:23:59.863Z,32.37
2023-01-21T17:26:37.687Z,38.67
2023-01-21T17:29:32.327Z,34.23
2023-01-21T17:32:22.093Z,32.70
2023-01-21T17:35:15.959Z,39.80
2023-01-21T17:37:53.324Z,39.17
2023-01-21T17:40:40.206Z,35.43
2023-01-21T17:43:19.528Z,38.40
2023-01-21T17:45:47.929Z,31.70
2023-01-21T17:48:26.671Z,39.20
2023-01-21T17:50:54.287Z,35.27
2023-01-21T17:53:31.055Z,36.67
2023-01-21T17:56:06.272Z,36.57
2023-01-21T17:58:46.765Z,35.57
2023-01-21T18:01:14.652Z,41.20
2023-01-21T18:03:42.348Z,43.40
2023-01-21T18:06:28.749Z,36.53
2023-01-21T18:08:57.334Z,38.03
2023-01-21T18:11:25.008Z,34.47
2023-01-21T18:13:52.683Z,37.07
2023-01-21T18:16:19.984Z,40.73
2023-01-21T18:18:47.114Z,38.30
2023-01-21T18:21:20.508Z,35.10
2023-01-21T18:23:48.456Z,43.23
2023-01-21T18:26:23.165Z,35.10
2023-01-21T18:28:50.329Z,36.40
2023-01-21T18:31:18.125Z,38.03
2023-01-21T18:33:45.055Z,31.47
2023-01-21T18:36:12.488Z,35.83
2023-01-21T18:38:39.731Z,39.47
2023-01-21T18:41:08.934Z,32.43
2023-01-21T18:43:35.891Z,35.27
2023-01-21T18:46:03.056Z,39.00
2023-01-21T18:48:30.985Z,40.33
2023-01-21T18:50:58.165Z,42.27
2023-01-21T18:53:25.577Z,34.83
2023-01-21T18:55:56.070Z,40.97
2023-01-21T18:58:23.027Z,42.20
2023-01-21T19:00:50.368Z,40.57
2023-01-21T19:03:17.613Z,40.03
2023-01-21T19:05:47.980Z,41.20
2023-01-21T19:08:22.624Z,37.13
2023-01-21T19:10:50.489Z,44.80
2023-01-21T19:13:40.897Z,36.80
2023-01-21T19:16:16.536Z,41.80
2023-01-21T19:18:46.738Z,43.00
2023-01-21T19:21:39.038Z,38.10
2023-01-21T19:24:37.567Z,42.53
2023-01-21T19:27:20.692Z,42.27
2023-01-21T19:30:40.259Z,41.27
2023-01-21T19:33:17.091Z,32.30
2023-01-21T19:35:53.316Z,44.23
2023-01-21T19:38:23.321Z,44.27
2023-01-21T19:40:51.536Z,42.83
2023-01-21T19:43:22.717Z,46.20
2023-01-21T19:45:57.117Z,42.90
2023-01-21T19:48:24.065Z,39.20
2023-01-21T19:50:51.168Z,44.33
2023-01-21T19:53:20.923Z,42.80
2023-01-21T19:55:50.183Z,40.23
2023-01-21T19:58:19.780Z,39.27
2023-01-21T20:00:49.371Z,42.20
2023-01-21T20:03:17.796Z,45.93
2023-01-21T20:05:46.096Z,44.67
2023-01-21T20:08:21.691Z,41.50
2023-01-21T20:10:48.716Z,45.33
2023-01-21T20:13:17.003Z,41.43
2023-01-21T20:15:46.180Z,47.33
2023-01-21T20:18:21.223Z,41.23
2023-01-21T20:20:48.406Z,41.30
2023-01-21T20:23:18.907Z,46.40
2023-01-21T20:25:48.768Z,48.33
2023-01-21T20:28:24.764Z,38.70
2023-01-21T20:30:53.214Z,34.37
2023-01-21T20:33:22.455Z,42.20
2023-01-21T20:35:52.740Z,40.17
2023-01-21T20:38:38.153Z,37.57
2023-01-21T20:41:06.187Z,36.47
2023-01-21T20:43:33.506Z,37.07
2023-01-21T20:46:07.482Z,36.87
2023-01-21T20:48:38.905Z,42.23
2023-01-21T20:51:06.266Z,36.47
2023-01-21T20:53:33.185Z,42.13
2023-01-21T20:56:07.508Z,42.60
2023-01-21T20:58:34.689Z,40.50
2023-01-21T21:01:01.880Z,40.53
2023-01-21T21:03:29.173Z,46.03
2023-01-21T21:05:57.002Z,47.90
2023-01-21T21:08:24.216Z,36.37
2023-01-21T21:10:52.879Z,43.07
2023-01-21T21:13:19.908Z,34.00
2023-01-21T21:15:50.029Z,37.80
2023-01-21T21:18:17.778Z,44.67
2023-01-21T21:20:47.948Z,38.47
2023-01-21T21:23:15.520Z,42.27
2023-01-21T21:25:46.179Z,43.13
2023-01-21T21:28:14.552Z,36.73
2023-01-21T21:30:42.451Z,43.97
2023-01-21T21:33:18.535Z,40.50
2023-01-21T21:35:47.045Z,39.80
2023-01-21T21:38:26.035Z,38.83
2023-01-21T21:40:53.310Z,41.70
2023-01-21T21:43:35.439Z,41.43
2023-01-21T21:46:28.891Z,44.13
2023-01-21T21:48:55.884Z,40.43
2023-01-21T21:51:23.371Z,46.50
2023-01-21T21:53:50.978Z,39.13
2023-01-21T21:56:23.771Z,39.60
2023-01-21T21:58:51.157Z,40.57
2023-01-21T22:01:23.897Z,41.90
2023-01-21T22:03:51.146Z,41.30
2023-01-21T22:06:19.985Z,40.63
2023-01-21T22:08:47.633Z,41.40
2023-01-21T22:11:17.500Z,39.33
2023-01-21T22:13:46.822Z,40.10
2023-01-21T22:16:16.680Z,55.27
2023-01-21T22:18:44.176Z,38.37
2023-01-21T22:21:15.318Z,39.73
2023-01-21T22:23:44.080Z,42.60
2023-01-21T22:26:13.537Z,49.00
2023-01-21T22:28:40.909Z,47.63
2023-01-21T22:31:10.428Z,44.13
2023-01-21T22:33:38.342Z,49.33
2023-01-21T22:36:08.424Z,45.90
2023-01-21T22:38:38.287Z,46.90
2023-01-21T22:41:07.824Z,42.67
2023-01-21T22:43:37.797Z,40.00
2023-01-21T22:46:05.835Z,41.13
2023-01-21T22:48:34.710Z,45.00
2023-01-21T22:51:03.661Z,44.00
2023-01-21T22:53:34.032Z,40.40
2023-01-21T22:56:05.160Z,38.80
2023-01-21T22:58:35.719Z,41.20
2023-01-21T23:01:04.837Z,41.07
2023-01-21T23:03:34.919Z,38.60
2023-01-21T23:06:07.773Z,31.90
2023-01-21T23:08:38.154Z,37.80
2023-01-21T23:11:07.847Z,37.00
2023-01-21T23:13:37.209Z,34.87
2023-01-21T23:16:11.195Z,37.43
2023-01-21T23:18:40.587Z,39.07
2023-01-21T23:21:11.002Z,34.90
2023-01-21T23:23:39.197Z,37.33
2023-01-21T23:26:08.669Z,28.87
2023-01-21T23:28:37.511Z,31.70
2023-01-21T23:31:07.595Z,30.80
2023-01-21T23:33:35.627Z,40.50
2023-01-21T23:36:04.634Z,35.03
2023-01-21T23:38:31.708Z,29.33
2023-01-21T23:40:59.789Z,37.17
2023-01-21T23:43:28.428Z,36.17
2023-01-21T23:45:57.128Z,30.87
2023-01-21T23:48:25.903Z,34.50
2023-01-21T23:50:53.845Z,38.30
2023-01-21T23:53:22.969Z,31.57
2023-01-21T23:55:51.108Z,34.13
2023-01-21T23:58:19.369Z,32.40
